PWSweather.com
Personal Weather Stations
Station Observations
KMAMEDFI2
Medfield, MA 02052

Medfield, MA 02052

Lat: 42.1900822, Lon: -71.3296889

Elevation: 138

Station Type: Rainwise WS MK-III

http://www.medfieldweather.com

Latest ConditionsUpdated 1:30:00 PM EDT Saturday, Oct 21, 2017
Currently Today's Max Today's Min Today's Average
Temperature 77.3°F25.2°C 77.3°F25.2°C 37.9°F3.3°C 51.0°F10.6°C
Dew Point 44.3°F6.8°C 47.5°F8.6°C 36.6°F2.6°C 41.8°F5.4°C
Winds 2.6 mph SW4.2 kmh SW 3.7 mph W6.0 kmh W - 1.0 mph 1.6 kmh
Wind Gusts 2.6 mph4.2 kmh 5.2 mph8.4 kmh - -
Humidity 31% 97% 31% 76%
Pressure 30.29 in1025.7 mb 30.30 in1026.1 mb 30.11 in1019.6 mb -
Hour Temp Dew Point Humidity Winds Wind Gusts Pressure Precip Precip Rate Daily Precip Total
01:30 PM 77.3°F25.2°C 44.3°F6.8°C 31% 2.6 mph SW4.2 kmh SW 2.6 mph4.2 kmh 30.29 in1025.7 mb - 0.00 in0.0 mm 0.00 in0.0 mm
01:20 PM 76.8°F24.9°C 43.9°F6.6°C 31% 2.7 mph SW4.3 kmh SW 3.9 mph6.3 kmh 30.29 in1025.7 mb - 0.00 in0.0 mm 0.00 in0.0 mm
01:10 PM 76.4°F24.7°C 43.5°F6.4°C 31% 3.1 mph WSW5.0 kmh WSW 5.2 mph8.4 kmh 30.29 in1025.7 mb - 0.00 in0.0 mm 0.00 in0.0 mm
01:00 PM 75.8°F24.3°C 44.6°F7.0°C 33% 2.1 mph SSW3.4 kmh SSW 2.6 mph4.2 kmh 30.29 in1025.7 mb - 0.00 in0.0 mm 0.00 in0.0 mm
12:50 PM 75.8°F24.3°C 45.4°F7.4°C 34% 2.3 mph WNW3.7 kmh WNW 5.2 mph8.4 kmh 30.29 in1025.7 mb - 0.00 in0.0 mm 0.00 in0.0 mm
12:40 PM 75.3°F24.1°C 46.5°F8.1°C 36% 2.3 mph W3.7 kmh W 2.6 mph4.2 kmh 30.30 in1026.1 mb - 0.00 in0.0 mm 0.00 in0.0 mm
12:30 PM 75.1°F23.9°C 44.8°F7.1°C 34% 2.4 mph SW3.9 kmh SW 5.2 mph8.4 kmh 30.29 in1025.7 mb - 0.00 in0.0 mm 0.00 in0.0 mm
12:20 PM 74.2°F23.4°C 46.3°F7.9°C 37% 3.0 mph WSW4.8 kmh WSW 5.2 mph8.4 kmh 30.29 in1025.7 mb - 0.00 in0.0 mm 0.00 in0.0 mm
12:10 PM 74.0°F23.3°C 43.8°F6.6°C 34% 2.5 mph SSW4.0 kmh SSW 3.9 mph6.3 kmh 30.29 in1025.7 mb - 0.00 in0.0 mm 0.00 in0.0 mm
12:00 PM 72.8°F22.7°C 45.7°F7.6°C 38% 1.8 mph W2.9 kmh W 2.6 mph4.2 kmh 30.29 in1025.7 mb - 0.00 in0.0 mm 0.00 in0.0 mm
11:50 AM 71.3°F21.8°C 44.3°F6.8°C 38% 2.2 mph SW3.5 kmh SW 2.6 mph4.2 kmh 30.29 in1025.7 mb - 0.00 in0.0 mm 0.00 in0.0 mm
11:40 AM 69.4°F20.8°C 44.0°F6.7°C 40% 2.1 mph WSW3.4 kmh WSW 3.9 mph6.3 kmh 30.29 in1025.7 mb - 0.00 in0.0 mm 0.00 in0.0 mm
11:30 AM 68.6°F20.3°C 44.0°F6.7°C 41% 2.2 mph SW3.5 kmh SW 2.6 mph4.2 kmh 30.28 in1025.4 mb - 0.00 in0.0 mm 0.00 in0.0 mm
11:20 AM 67.8°F19.9°C 43.3°F6.3°C 41% 2.5 mph WSW4.0 kmh WSW 2.6 mph4.2 kmh 30.29 in1025.7 mb - 0.00 in0.0 mm 0.00 in0.0 mm
11:10 AM 66.9°F19.4°C 44.2°F6.8°C 44% 3.1 mph WSW5.0 kmh WSW 2.6 mph4.2 kmh 30.28 in1025.4 mb - 0.00 in0.0 mm 0.00 in0.0 mm
11:00 AM 65.9°F18.8°C 44.5°F6.9°C 46% 2.5 mph SW4.0 kmh SW 5.2 mph8.4 kmh 30.28 in1025.4 mb - 0.00 in0.0 mm 0.00 in0.0 mm
10:50 AM 64.6°F18.1°C 45.5°F7.5°C 50% 2.3 mph SW3.7 kmh SW 2.6 mph4.2 kmh 30.27 in1025.1 mb - 0.00 in0.0 mm 0.00 in0.0 mm
10:40 AM 63.5°F17.5°C 44.5°F6.9°C 50% 2.5 mph S4.0 kmh S 5.2 mph8.4 kmh 30.27 in1025.1 mb - 0.00 in0.0 mm 0.00 in0.0 mm
10:30 AM 62.4°F16.9°C 45.5°F7.5°C 54% 2.4 mph SW3.9 kmh SW 3.9 mph6.3 kmh 30.26 in1024.7 mb - 0.00 in0.0 mm 0.00 in0.0 mm
10:20 AM 61.3°F16.3°C 45.9°F7.7°C 57% 1.9 mph SSW3.1 kmh SSW 3.9 mph6.3 kmh 30.26 in1024.7 mb - 0.00 in0.0 mm 0.00 in0.0 mm
10:10 AM 60.3°F15.7°C 45.9°F7.7°C 59% 2.8 mph SW4.5 kmh SW 5.2 mph8.4 kmh 30.25 in1024.4 mb - 0.00 in0.0 mm 0.00 in0.0 mm
10:00 AM 59.1°F15.1°C 44.8°F7.1°C 59% 3.7 mph W6.0 kmh W 5.2 mph8.4 kmh 30.25 in1024.4 mb - 0.00 in0.0 mm 0.00 in0.0 mm
09:50 AM 57.9°F14.4°C 45.4°F7.4°C 63% 1.4 mph SW2.3 kmh SW 2.6 mph4.2 kmh 30.25 in1024.4 mb - 0.00 in0.0 mm 0.00 in0.0 mm
09:40 AM 56.2°F13.4°C 44.6°F7.0°C 65% 2.1 mph WSW3.4 kmh WSW 2.6 mph4.2 kmh 30.24 in1024.0 mb - 0.00 in0.0 mm 0.00 in0.0 mm
09:30 AM 53.6°F12.0°C 44.8°F7.1°C 72% 2.6 mph WSW4.2 kmh WSW 2.6 mph4.2 kmh 30.23 in1023.7 mb - 0.00 in0.0 mm 0.00 in0.0 mm
09:20 AM 50.3°F10.2°C 46.2°F7.9°C 86% 1.4 mph SW2.3 kmh SW 2.6 mph4.2 kmh 30.23 in1023.7 mb - 0.00 in0.0 mm 0.00 in0.0 mm
09:10 AM 48.3°F9.1°C 47.5°F8.6°C 97% 0.2 mph SW0.3 kmh SW 2.6 mph4.2 kmh 30.22 in1023.4 mb - 0.00 in0.0 mm 0.00 in0.0 mm
09:00 AM 46.9°F8.3°C 46.1°F7.8°C 97% Calm Calm -- 30.22 in1023.4 mb - 0.00 in0.0 mm 0.00 in0.0 mm
08:50 AM 45.1°F7.3°C 44.3°F6.8°C 97% 0.8 mph SW1.3 kmh SW 2.6 mph4.2 kmh 30.21 in1023.0 mb - 0.00 in0.0 mm 0.00 in0.0 mm
08:40 AM 43.3°F6.3°C 42.2°F5.7°C 96% Calm Calm -- 30.21 in1023.0 mb - 0.00 in0.0 mm 0.00 in0.0 mm
08:30 AM 41.8°F5.4°C 40.7°F4.8°C 96% 0.2 mph SW0.3 kmh SW 1.3 mph2.1 kmh 30.21 in1023.0 mb - 0.00 in0.0 mm 0.00 in0.0 mm
08:20 AM 40.9°F4.9°C 39.8°F4.3°C 96% Calm Calm -- 30.21 in1023.0 mb - 0.00 in0.0 mm 0.00 in0.0 mm
08:10 AM 39.8°F4.3°C 38.8°F3.8°C 96% Calm Calm -- 30.20 in1022.7 mb - 0.00 in0.0 mm 0.00 in0.0 mm
08:00 AM 39.5°F4.2°C 38.5°F3.6°C 96% Calm Calm -- 30.20 in1022.7 mb - 0.00 in0.0 mm 0.00 in0.0 mm
07:50 AM 39.1°F3.9°C 38.0°F3.3°C 96% Calm Calm -- 30.19 in1022.4 mb - 0.00 in0.0 mm 0.00 in0.0 mm
07:40 AM 38.8°F3.8°C 37.8°F3.2°C 96% Calm Calm -- 30.19 in1022.4 mb - 0.00 in0.0 mm 0.00 in0.0 mm
07:30 AM 38.7°F3.7°C 37.7°F3.2°C 96% Calm Calm -- 30.19 in1022.4 mb - 0.00 in0.0 mm 0.00 in0.0 mm
07:20 AM 38.7°F3.7°C 37.6°F3.1°C 96% Calm Calm -- 30.18 in1022.0 mb - 0.00 in0.0 mm 0.00 in0.0 mm
07:10 AM 38.4°F3.6°C 37.4°F3.0°C 96% Calm Calm -- 30.18 in1022.0 mb - 0.00 in0.0 mm 0.00 in0.0 mm
07:00 AM 38.4°F3.6°C 37.4°F3.0°C 96% Calm Calm -- 30.18 in1022.0 mb - 0.00 in0.0 mm 0.00 in0.0 mm
06:50 AM 37.9°F3.3°C 36.6°F2.6°C 95% Calm Calm -- 30.18 in1022.0 mb - 0.00 in0.0 mm 0.00 in0.0 mm
06:40 AM 38.2°F3.4°C 37.1°F2.8°C 96% Calm Calm -- 30.18 in1022.0 mb - 0.00 in0.0 mm 0.00 in0.0 mm
06:30 AM 38.7°F3.7°C 37.6°F3.1°C 96% Calm Calm -- 30.17 in1021.7 mb - 0.00 in0.0 mm 0.00 in0.0 mm
06:20 AM 39.0°F3.9°C 37.9°F3.3°C 96% Calm Calm -- 30.17 in1021.7 mb - 0.00 in0.0 mm 0.00 in0.0 mm
06:10 AM 39.2°F4.0°C 38.1°F3.4°C 96% Calm Calm -- 30.17 in1021.7 mb - 0.00 in0.0 mm 0.00 in0.0 mm
06:00 AM 39.3°F4.1°C 38.2°F3.4°C 96% Calm Calm -- 30.17 in1021.7 mb - 0.00 in0.0 mm 0.00 in0.0 mm
05:50 AM 39.7°F4.3°C 38.6°F3.7°C 96% Calm Calm -- 30.17 in1021.7 mb - 0.00 in0.0 mm 0.00 in0.0 mm
05:40 AM 39.9°F4.4°C 38.9°F3.8°C 96% Calm Calm -- 30.17 in1021.7 mb - 0.00 in0.0 mm 0.00 in0.0 mm
05:30 AM 39.8°F4.3°C 38.8°F3.8°C 96% Calm Calm -- 30.17 in1021.7 mb - 0.00 in0.0 mm 0.00 in0.0 mm
05:20 AM 39.7°F4.3°C 38.6°F3.7°C 96% 0.3 mph SW0.5 kmh SW 1.3 mph2.1 kmh 30.17 in1021.7 mb - 0.00 in0.0 mm 0.00 in0.0 mm
05:10 AM 40.1°F4.5°C 39.1°F3.9°C 96% Calm Calm -- 30.16 in1021.3 mb - 0.00 in0.0 mm 0.00 in0.0 mm
05:00 AM 40.4°F4.7°C 39.4°F4.1°C 96% Calm Calm -- 30.16 in1021.3 mb - 0.00 in0.0 mm 0.00 in0.0 mm
04:50 AM 40.4°F4.7°C 39.3°F4.1°C 96% Calm Calm -- 30.16 in1021.3 mb - 0.00 in0.0 mm 0.00 in0.0 mm
04:40 AM 41.0°F5.0°C 39.9°F4.4°C 96% Calm Calm -- 30.16 in1021.3 mb - 0.00 in0.0 mm 0.00 in0.0 mm
04:30 AM 41.6°F5.3°C 40.5°F4.7°C 96% Calm Calm -- 30.16 in1021.3 mb - 0.00 in0.0 mm 0.00 in0.0 mm
04:20 AM 41.7°F5.4°C 40.6°F4.8°C 96% Calm Calm -- 30.15 in1021.0 mb - 0.00 in0.0 mm 0.00 in0.0 mm
04:10 AM 42.3°F5.7°C 40.7°F4.8°C 94% Calm Calm -- 30.15 in1021.0 mb - 0.00 in0.0 mm 0.00 in0.0 mm
04:00 AM 42.8°F6.0°C 40.9°F4.9°C 93% Calm Calm -- 30.15 in1021.0 mb - 0.00 in0.0 mm 0.00 in0.0 mm
03:50 AM 43.4°F6.3°C 41.2°F5.1°C 92% Calm Calm -- 30.15 in1021.0 mb - 0.00 in0.0 mm 0.00 in0.0 mm
03:40 AM 43.0°F6.1°C 41.1°F5.1°C 93% 1.6 mph SW2.6 kmh SW 2.6 mph4.2 kmh 30.15 in1021.0 mb - 0.00 in0.0 mm 0.00 in0.0 mm
03:30 AM 43.7°F6.5°C 40.6°F4.8°C 89% Calm Calm -- 30.15 in1021.0 mb - 0.00 in0.0 mm 0.00 in0.0 mm
03:20 AM 44.6°F7.0°C 41.0°F5.0°C 87% Calm Calm -- 30.15 in1021.0 mb - 0.00 in0.0 mm 0.00 in0.0 mm
03:10 AM 45.7°F7.6°C 41.1°F5.1°C 84% Calm Calm -- 30.14 in1020.7 mb - 0.00 in0.0 mm 0.00 in0.0 mm
03:00 AM 46.3°F7.9°C 41.4°F5.2°C 83% 1.4 mph SW2.3 kmh SW 2.6 mph4.2 kmh 30.14 in1020.7 mb - 0.00 in0.0 mm 0.00 in0.0 mm
02:50 AM 46.0°F7.8°C 41.4°F5.2°C 84% 0.2 mph SW0.3 kmh SW 2.6 mph4.2 kmh 30.14 in1020.7 mb - 0.00 in0.0 mm 0.00 in0.0 mm
02:40 AM 46.3°F7.9°C 41.1°F5.1°C 82% Calm Calm -- 30.14 in1020.7 mb - 0.00 in0.0 mm 0.00 in0.0 mm
02:30 AM 46.7°F8.2°C 41.2°F5.1°C 81% Calm Calm -- 30.14 in1020.7 mb - 0.00 in0.0 mm 0.00 in0.0 mm
02:20 AM 46.7°F8.2°C 41.5°F5.3°C 82% 1.4 mph SW2.3 kmh SW 2.6 mph4.2 kmh 30.14 in1020.7 mb - 0.00 in0.0 mm 0.00 in0.0 mm
02:10 AM 46.7°F8.2°C 41.8°F5.4°C 83% 0.1 mph SW0.2 kmh SW 1.3 mph2.1 kmh 30.14 in1020.7 mb - 0.00 in0.0 mm 0.00 in0.0 mm
02:00 AM 46.9°F8.3°C 41.3°F5.2°C 81% 0.2 mph SW0.3 kmh SW 1.3 mph2.1 kmh 30.14 in1020.7 mb - 0.00 in0.0 mm 0.00 in0.0 mm
01:50 AM 47.1°F8.4°C 41.5°F5.3°C 81% Calm Calm -- 30.15 in1021.0 mb - 0.00 in0.0 mm 0.00 in0.0 mm
01:40 AM 48.0°F8.9°C 41.8°F5.4°C 79% Calm Calm -- 30.15 in1021.0 mb - 0.00 in0.0 mm 0.00 in0.0 mm
01:30 AM 48.8°F9.3°C 42.5°F5.8°C 79% 1.2 mph SW1.9 kmh SW 2.6 mph4.2 kmh 30.14 in1020.7 mb - 0.00 in0.0 mm 0.00 in0.0 mm
01:20 AM 49.4°F9.7°C 41.8°F5.4°C 75% 0.6 mph SW1.0 kmh SW -- 30.14 in1020.7 mb - 0.00 in0.0 mm 0.00 in0.0 mm
01:10 AM 49.6°F9.8°C 42.0°F5.6°C 75% 1.2 mph SW1.9 kmh SW 2.6 mph4.2 kmh 30.13 in1020.3 mb - 0.00 in0.0 mm 0.00 in0.0 mm
01:00 AM 49.8°F9.9°C 41.8°F5.4°C 74% 1.5 mph SW2.4 kmh SW 2.6 mph4.2 kmh 30.13 in1020.3 mb - 0.00 in0.0 mm 0.00 in0.0 mm
12:50 AM 49.8°F9.9°C 41.9°F5.5°C 74% 1.4 mph SW2.3 kmh SW 2.6 mph4.2 kmh 30.13 in1020.3 mb - 0.00 in0.0 mm 0.00 in0.0 mm
12:40 AM 49.2°F9.6°C 41.6°F5.3°C 75% 2.5 mph SW4.0 kmh SW 2.6 mph4.2 kmh 30.13 in1020.3 mb - 0.00 in0.0 mm 0.00 in0.0 mm
12:30 AM 48.8°F9.3°C 42.5°F5.8°C 79% 1.3 mph W2.1 kmh W 2.6 mph4.2 kmh 30.12 in1020.0 mb - 0.00 in0.0 mm 0.00 in0.0 mm
12:20 AM 48.7°F9.3°C 42.5°F5.8°C 79% Calm Calm -- 30.12 in1020.0 mb - 0.00 in0.0 mm 0.00 in0.0 mm
12:10 AM 48.8°F9.3°C 42.6°F5.9°C 79% 0.2 mph W0.3 kmh W 2.6 mph4.2 kmh 30.11 in1019.6 mb - 0.00 in0.0 mm 0.00 in0.0 mm
12:00 AM 49.0°F9.4°C 42.4°F5.8°C 78% 1.4 mph W2.3 kmh W 2.6 mph4.2 kmh 30.12 in1020.0 mb - 0.00 in0.0 mm 0.00 in0.0 mm